Edt Leon — 5BFB3 — position and weather

sailwx.info

Track history (hours):
 
Tides and Currents Weather Stations Pressure Air Temp Water Temp Dewpoint Dewpoint Depression Visibility Wind Speed Wind Dir Waves Ship Positions

Edt Leon

Last reported at 2018-Jun-24 10:01 UTC. Time now 2018-Jun-24 15:04 UTC.
Position N 32°56' E 034°51'.

Length 50 m; draft 2.9 m.

Type: Other ship. MMSI: 209343000.

Date/timePositionNaut miles runAvg speedWind from/ knotsBaromVisibWave heightAir tempDewpointWater temp
2018-Jun-24 10:01N 32°56' E 034°51'117.3
2018-Jun-24 09:56N 32°55' E 034°53'7 0.7
2018-Jun-23 23:05N 32°51' E 034°60'116.7
2018-Jun-23 23:00N 32°52' E 034°58'917.1
2018-Jun-23 22:30N 32°53' E 034°48'4 0.3
2018-Jun-23 10:43N 32°56' E 034°51'416.2
2018-Jun-23 10:27N 32°54' E 034°56'4 0.4
2018-Jun-22 22:56N 32°51' E 034°60'716.3
2018-Jun-22 22:30N 32°53' E 034°51'3 0.2
2018-Jun-22 10:23N 32°56' E 034°51'615.5
2018-Jun-22 09:59N 32°53' E 034°58'2 0.1
2018-Jun-20 20:24N 32°51' E 034°59'716.6
2018-Jun-20 20:00N 32°53' E 034°52'1 0.1
2018-Jun-20 09:07N 32°53' E 034°50'217.0
2018-Jun-20 09:01N 32°53' E 034°52'5 0.6
2018-Jun-20 01:26N 32°52' E 034°58'716.1
2018-Jun-20 01:00N 32°53' E 034°50'3 0.2
2018-Jun-19 11:46N 32°53' E 034°53'5 0.4
2018-Jun-18 23:09N 32°51' E 034°59'316.2
2018-Jun-18 22:59N 32°52' E 034°56'4 0.4
2018-Jun-18 11:55N 32°53' E 034°51'9 0.9
2018-Jun-18 02:00N 32°50' E 035°01'6 9.7
2018-Jun-18 01:21N 32°52' E 034°54'3 0.3
2018-Jun-17 13:23N 32°55' E 034°52'615.3
2018-Jun-17 12:59N 32°52' E 034°59'1 0.1
2018-Jun-17 00:04N 32°51' E 034°59'216.3
2018-Jun-16 23:57N 32°52' E 034°57'65 8.7
2018-Jun-16 16:25N 32°57' E 033°40'613.8
2018-Jun-16 16:00N 32°57' E 033°47'916.6
2018-Jun-16 15:26N 32°59' E 033°58'716.8
2018-Jun-16 15:00N 32°60' E 034°06'917.0
2018-Jun-16 14:30N 32°58' E 034°16'917.0
2018-Jun-16 14:00N 32°57' E 034°26'816.9
2018-Jun-16 13:31N 32°55' E 034°36'816.9
2018-Jun-16 13:00N 32°54' E 034°46'816.8
2018-Jun-16 12:30N 32°52' E 034°56'1 0.0
2018-Jun-15 02:05N 32°52' E 034°57'217.2
2018-Jun-15 01:58N 32°53' E 034°55'41 4.6
2018-Jun-14 17:13N 32°59' E 034°08'717.0
2018-Jun-14 16:47N 32°60' E 034°16'3017.0
2018-Jun-14 15:01N 32°55' E 034°51'116.7
2018-Jun-14 14:59N 32°55' E 034°52'  
Track history (hours):
 
Tides and Currents Weather Stations Pressure Air Temp Water Temp Dewpoint Dewpoint Depression Visibility Wind Speed Wind Dir Waves Ship Positions

Edt Leon

Last reported at 2018-Jun-24 10:01 UTC. Time now 2018-Jun-24 15:04 UTC.
Position N 32°56' E 034°51'.

Length 50 m; draft 2.9 m.

Type: Other ship. MMSI: 209343000.

Date/timePositionNaut miles runAvg speedWind from/ knotsBaromVisibWave heightAir tempDewpointWater temp
2018-Jun-24 10:01N 32°56' E 034°51'117.3
2018-Jun-24 09:56N 32°55' E 034°53'7 0.7
2018-Jun-23 23:05N 32°51' E 034°60'116.7
2018-Jun-23 23:00N 32°52' E 034°58'917.1
2018-Jun-23 22:30N 32°53' E 034°48'4 0.3
2018-Jun-23 10:43N 32°56' E 034°51'416.2
2018-Jun-23 10:27N 32°54' E 034°56'4 0.4
2018-Jun-22 22:56N 32°51' E 034°60'716.3
2018-Jun-22 22:30N 32°53' E 034°51'3 0.2
2018-Jun-22 10:23N 32°56' E 034°51'615.5
2018-Jun-22 09:59N 32°53' E 034°58'2 0.1
2018-Jun-20 20:24N 32°51' E 034°59'716.6
2018-Jun-20 20:00N 32°53' E 034°52'1 0.1
2018-Jun-20 09:07N 32°53' E 034°50'217.0
2018-Jun-20 09:01N 32°53' E 034°52'5 0.6
2018-Jun-20 01:26N 32°52' E 034°58'716.1
2018-Jun-20 01:00N 32°53' E 034°50'3 0.2
2018-Jun-19 11:46N 32°53' E 034°53'5 0.4
2018-Jun-18 23:09N 32°51' E 034°59'316.2
2018-Jun-18 22:59N 32°52' E 034°56'4 0.4
2018-Jun-18 11:55N 32°53' E 034°51'9 0.9
2018-Jun-18 02:00N 32°50' E 035°01'6 9.7
2018-Jun-18 01:21N 32°52' E 034°54'3 0.3
2018-Jun-17 13:23N 32°55' E 034°52'615.3
2018-Jun-17 12:59N 32°52' E 034°59'1 0.1
2018-Jun-17 00:04N 32°51' E 034°59'216.3
2018-Jun-16 23:57N 32°52' E 034°57'65 8.7
2018-Jun-16 16:25N 32°57' E 033°40'613.8
2018-Jun-16 16:00N 32°57' E 033°47'916.6
2018-Jun-16 15:26N 32°59' E 033°58'716.8
2018-Jun-16 15:00N 32°60' E 034°06'917.0
2018-Jun-16 14:30N 32°58' E 034°16'917.0
2018-Jun-16 14:00N 32°57' E 034°26'816.9
2018-Jun-16 13:31N 32°55' E 034°36'816.9
2018-Jun-16 13:00N 32°54' E 034°46'816.8
2018-Jun-16 12:30N 32°52' E 034°56'1 0.0
2018-Jun-15 02:05N 32°52' E 034°57'217.2
2018-Jun-15 01:58N 32°53' E 034°55'41 4.6
2018-Jun-14 17:13N 32°59' E 034°08'717.0
2018-Jun-14 16:47N 32°60' E 034°16'3017.0
2018-Jun-14 15:01N 32°55' E 034°51'116.7
2018-Jun-14 14:59N 32°55' E 034°52'  

Dump ship's entire track history